Time;durP1;ratioP1;P1;durP2;ratioP2;P2;SDS_P1;SDS_P2;PMS_P1;PMS_P2;Temp;Humidity;BMP_temperature;BMP_pressure;BME280_temperature;BME280_humidity;BME280_pressure;Samples;Min_cycle;Max_cycle;Signal;HPM_P1;HPM_P2
2022/07/26 00:01:01;;;;;;;11.55;2.30;;;;;;;17.70;70.33;101246.81;5040224;28;20036;-87
2022/07/26 00:03:26;;;;;;;14.07;2.97;;;;;;;17.69;70.64;101250.44;5044187;28;20523;-87
2022/07/26 00:05:52;;;;;;;10.13;2.33;;;;;;;17.71;71.00;101252.13;5043041;28;20085;-86
2022/07/26 00:08:17;;;;;;;14.00;2.45;;;;;;;17.68;70.81;101246.91;5045088;28;20017;-87
2022/07/26 00:10:48;;;;;;;10.05;2.85;;;;;;;17.63;70.50;101247.09;5039385;28;20032;-87
2022/07/26 00:13:16;;;;;;;9.57;2.28;;;;;;;17.71;70.27;101260.16;5073198;28;20434;-86
2022/07/26 00:15:43;;;;;;;11.48;2.22;;;;;;;17.69;71.07;101264.69;5060560;28;20043;-87
2022/07/26 00:18:09;;;;;;;14.15;2.55;;;;;;;17.62;71.09;101247.16;5056229;28;20048;-86
2022/07/26 00:20:34;;;;;;;11.30;2.53;;;;;;;17.66;71.31;101259.50;5036282;28;20415;-87
2022/07/26 00:23:00;;;;;;;8.35;2.28;;;;;;;17.69;71.49;101263.84;5025768;28;20036;-88
2022/07/26 00:25:27;;;;;;;10.93;2.53;;;;;;;17.63;71.27;101248.94;5044262;28;20056;-86
2022/07/26 00:27:54;;;;;;;10.15;2.75;;;;;;;17.64;71.43;101264.03;5023110;28;20477;-88
2022/07/26 00:30:19;;;;;;;8.43;2.47;;;;;;;17.62;71.74;101257.88;5036138;28;20047;-86
2022/07/26 00:32:45;;;;;;;11.95;2.70;;;;;;;17.52;72.31;101249.38;5053657;28;20021;-87
2022/07/26 00:35:11;;;;;;;12.55;2.90;;;;;;;17.54;71.74;101252.00;5056029;28;20391;-86
2022/07/26 00:37:38;;;;;;;9.18;2.80;;;;;;;17.55;72.14;101264.44;5022723;28;20083;-87
2022/07/26 00:40:04;;;;;;;13.88;3.00;;;;;;;17.52;72.13;101267.25;5030036;28;20040;-86
2022/07/26 00:42:30;;;;;;;15.43;3.58;;;;;;;17.53;71.83;101269.00;5037967;28;20087;-89
2022/07/26 00:44:56;;;;;;;12.38;2.88;;;;;;;17.54;72.07;101274.28;5036922;28;20025;-88
2022/07/26 00:47:21;;;;;;;9.63;2.67;;;;;;;17.45;71.72;101268.47;5023662;28;20029;-89
2022/07/26 00:49:47;;;;;;;12.70;2.75;;;;;;;17.41;71.89;101260.56;5037083;28;20396;-89
2022/07/26 00:52:13;;;;;;;15.02;3.17;;;;;;;17.47;72.04;101274.63;5004261;28;20037;-89
2022/07/26 00:54:42;;;;;;;8.00;2.80;;;;;;;17.50;72.34;101280.69;5019677;28;20032;-89
2022/07/26 00:57:08;;;;;;;13.52;3.35;;;;;;;17.46;72.81;101270.19;5019552;28;20029;-88
2022/07/26 00:59:34;;;;;;;14.35;3.00;;;;;;;17.36;73.25;101259.91;5036199;28;20484;-88
2022/07/26 01:02:00;;;;;;;10.57;3.00;;;;;;;17.46;72.91;101260.38;5035804;28;20037;-88
2022/07/26 01:04:26;;;;;;;11.73;3.13;;;;;;;17.40;73.04;101258.81;5016152;28;20033;-88
2022/07/26 01:06:52;;;;;;;10.77;3.20;;;;;;;17.38;73.10;101249.09;4999503;28;20029;-88
2022/07/26 01:09:18;;;;;;;13.20;3.03;;;;;;;17.41;73.95;101265.94;5020190;28;20499;-92
2022/07/26 01:11:44;;;;;;;12.10;2.97;;;;;;;17.38;73.76;101254.47;5052453;28;20488;-90
2022/07/26 01:14:10;;;;;;;12.98;3.85;;;;;;;17.38;74.07;101243.75;5019170;28;20369;-88
2022/07/26 01:16:35;;;;;;;12.57;2.88;;;;;;;17.45;73.93;101260.44;5035388;28;20021;-88
2022/07/26 01:19:01;;;;;;;12.82;3.22;;;;;;;17.42;74.05;101254.28;5057138;28;20098;-90
2022/07/26 01:21:29;;;;;;;9.20;2.85;;;;;;;17.40;74.69;101248.09;5056080;28;20098;-89
2022/07/26 01:23:54;;;;;;;21.25;4.03;;;;;;;17.34;74.85;101247.53;5030118;28;20043;-89
2022/07/26 01:26:20;;;;;;;15.85;3.58;;;;;;;17.40;74.54;101258.81;5062655;28;20032;-89
2022/07/26 01:28:48;;;;;;;12.43;3.35;;;;;;;17.35;75.55;101263.50;5049022;28;20124;-89
2022/07/26 01:31:14;;;;;;;10.25;3.17;;;;;;;17.36;75.72;101259.03;5025890;28;20476;-89
2022/07/26 01:33:40;;;;;;;13.55;3.20;;;;;;;17.39;75.45;101257.09;5060380;28;20056;-90
2022/07/26 01:36:07;;;;;;;16.55;3.35;;;;;;;17.35;76.19;101250.13;5045306;28;20041;-90
2022/07/26 01:38:32;;;;;;;12.30;3.22;;;;;;;17.33;76.12;101249.34;5045577;28;20044;-88
2022/07/26 01:40:58;;;;;;;15.98;3.42;;;;;;;17.35;76.10;101258.16;5050077;28;20406;-88
2022/07/26 01:43:23;;;;;;;14.77;3.90;;;;;;;17.34;76.38;101242.16;5078607;28;20432;-89
2022/07/26 01:45:49;;;;;;;15.48;3.55;;;;;;;17.34;76.17;101244.84;5039183;28;20064;-89
2022/07/26 01:48:14;;;;;;;10.20;3.05;;;;;;;17.33;76.25;101253.78;5042031;28;20060;-89
2022/07/26 01:50:40;;;;;;;15.25;3.67;;;;;;;17.38;76.06;101262.50;5025325;28;20036;-89
2022/07/26 01:53:06;;;;;;;14.45;3.15;;;;;;;17.34;76.46;101256.41;5051896;28;20075;-91
2022/07/26 01:55:31;;;;;;;14.27;3.58;;;;;;;17.35;76.01;101259.97;5045723;28;20039;-90
2022/07/26 01:57:57;;;;;;;9.30;2.95;;;;;;;17.36;76.12;101253.69;5049544;28;20035;-89
2022/07/26 02:00:22;;;;;;;15.60;3.10;;;;;;;17.35;76.07;101265.31;5042134;28;20037;-88
2022/07/26 02:02:48;;;;;;;18.65;3.92;;;;;;;17.32;76.19;101266.31;5008937;28;20074;-88
2022/07/26 02:05:13;;;;;;;14.80;3.35;;;;;;;17.36;76.15;101265.25;5025665;28;20041;-89
2022/07/26 02:07:41;;;;;;;14.27;3.80;;;;;;;17.33;76.60;101272.53;5028820;28;20426;-88
2022/07/26 02:10:09;;;;;;;12.05;3.03;;;;;;;17.32;77.27;101269.00;5078947;28;20025;-90
2022/07/26 02:12:35;;;;;;;15.50;3.78;;;;;;;17.31;77.41;101275.28;5078653;28;20467;-88
2022/07/26 02:15:02;;;;;;;17.10;3.72;;;;;;;17.25;77.59;101262.16;5041473;28;20028;-91
2022/07/26 02:17:27;;;;;;;13.25;3.75;;;;;;;17.30;77.75;101270.88;5041483;28;20045;-89
2022/07/26 02:19:53;;;;;;;15.93;3.22;;;;;;;17.32;77.63;101276.16;4993260;28;20040;-89
2022/07/26 02:22:19;;;;;;;15.57;3.72;;;;;;;17.31;78.01;101266.38;5045650;28;20376;-89
2022/07/26 02:24:48;;;;;;;11.55;3.22;;;;;;;17.23;78.32;101256.00;5046732;28;20475;-89
2022/07/26 02:27:14;;;;;;;12.23;3.65;;;;;;;17.27;78.14;101268.31;5025015;28;20040;-90
2022/07/26 02:29:40;;;;;;;13.57;3.63;;;;;;;17.19;78.33;101263.31;5024074;28;20488;-88
2022/07/26 02:32:06;;;;;;;17.25;4.05;;;;;;;17.20;79.06;101270.38;5045884;28;20028;-89
2022/07/26 02:34:31;;;;;;;14.52;3.72;;;;;;;17.24;79.03;101278.31;5042097;28;20089;-88
2022/07/26 02:36:57;;;;;;;17.65;3.80;;;;;;;17.26;78.76;101279.97;5052849;28;20036;-88
2022/07/26 02:39:26;;;;;;;18.02;3.90;;;;;;;17.23;79.33;101281.91;5038487;28;20397;-89
2022/07/26 02:41:57;;;;;;;20.35;4.28;;;;;;;17.23;79.36;101279.22;5022642;28;20060;-91
2022/07/26 02:44:24;;;;;;;18.00;4.40;;;;;;;17.22;79.42;101286.38;5032330;28;20047;-88
2022/07/26 02:46:50;;;;;;;17.08;4.43;;;;;;;17.22;79.40;101282.84;5058463;28;20123;-88
2022/07/26 02:49:17;;;;;;;11.68;4.40;;;;;;;17.20;79.69;101283.75;5049122;28;20028;-89
2022/07/26 02:51:43;;;;;;;16.05;4.00;;;;;;;17.22;79.70;101286.38;5037009;28;20029;-89
2022/07/26 02:54:08;;;;;;;14.23;4.18;;;;;;;17.16;79.95;101282.19;5031995;28;20085;-88
2022/07/26 02:56:34;;;;;;;14.73;4.53;;;;;;;17.09;80.23;101283.38;5032130;28;20052;-88
2022/07/26 02:58:59;;;;;;;22.58;4.57;;;;;;;17.14;80.08;101294.75;5054393;28;20017;-90
2022/07/26 03:01:25;;;;;;;21.55;4.68;;;;;;;17.14;80.55;101301.91;5038343;28;20036;-88
2022/07/26 03:03:50;;;;;;;17.98;4.53;;;;;;;17.07;80.09;101293.25;5040706;28;20484;-89
2022/07/26 03:06:17;;;;;;;16.80;4.32;;;;;;;17.11;80.92;101300.22;5057530;28;20037;-88
2022/07/26 03:08:43;;;;;;;17.20;4.55;;;;;;;17.10;80.60;101303.81;5047224;28;20047;-89
2022/07/26 03:11:08;;;;;;;17.73;4.82;;;;;;;17.10;81.36;101303.81;5044674;28;20040;-88
2022/07/26 03:13:34;;;;;;;15.80;4.38;;;;;;;17.12;80.64;101309.13;5041266;28;20041;-91
2022/07/26 03:16:00;;;;;;;19.42;4.88;;;;;;;17.05;80.92;101308.50;5057846;28;20033;-89
2022/07/26 03:18:25;;;;;;;19.92;5.63;;;;;;;17.01;81.82;101312.22;5057094;28;20516;-87
2022/07/26 03:20:51;;;;;;;16.05;5.05;;;;;;;17.01;81.83;101301.53;5044115;28;20028;-87
2022/07/26 03:23:17;;;;;;;17.60;4.78;;;;;;;17.03;81.48;101310.38;5057122;28;20032;-86
2022/07/26 03:25:42;;;;;;;17.88;5.20;;;;;;;17.00;81.65;101306.97;5041652;28;20082;-86
2022/07/26 03:28:08;;;;;;;15.52;4.00;;;;;;;16.97;81.79;101307.97;5040436;28;20021;-87
2022/07/26 03:30:34;;;;;;;20.50;4.55;;;;;;;16.95;81.96;101312.50;5048459;28;20067;-86
2022/07/26 03:32:59;;;;;;;22.55;5.28;;;;;;;16.93;81.85;101309.00;5035418;28;20029;-88
2022/07/26 03:35:25;;;;;;;15.85;4.25;;;;;;;16.89;81.83;101302.91;5053746;28;20398;-87
2022/07/26 03:37:51;;;;;;;20.38;4.68;;;;;;;16.94;82.09;101318.78;5040100;28;20028;-87
2022/07/26 03:40:18;;;;;;;16.65;4.50;;;;;;;16.97;82.07;101332.91;5041535;28;20422;-86
2022/07/26 03:42:45;;;;;;;15.40;4.28;;;;;;;16.96;82.23;101327.59;5064818;28;20051;-86
2022/07/26 03:45:11;;;;;;;20.75;4.97;;;;;;;16.98;81.32;101339.13;5039747;28;20113;-87
2022/07/26 03:47:36;;;;;;;21.02;5.45;;;;;;;16.91;82.47;101327.81;5050612;28;20078;-86
2022/07/26 03:50:04;;;;;;;14.85;4.15;;;;;;;16.89;82.57;101326.09;5038164;28;20033;-88
2022/07/26 03:52:29;;;;;;;20.40;4.40;;;;;;;16.91;82.90;101333.16;5056573;28;20039;-87
2022/07/26 03:54:55;;;;;;;16.35;4.82;;;;;;;16.86;82.68;101323.56;5030972;28;20395;-86
2022/07/26 03:57:20;;;;;;;17.98;4.78;;;;;;;16.89;82.86;101334.13;5041047;28;20063;-86
2022/07/26 03:59:46;;;;;;;13.82;4.63;;;;;;;16.90;82.68;101334.06;5028539;28;20094;-86
2022/07/26 04:02:11;;;;;;;16.42;4.60;;;;;;;16.91;83.45;101337.63;5039928;28;20523;-86
2022/07/26 04:04:37;;;;;;;16.45;4.90;;;;;;;16.88;82.71;101329.72;5024754;28;20037;-86
2022/07/26 04:07:03;;;;;;;23.13;4.63;;;;;;;16.93;82.67;101341.09;5021138;28;20021;-86
2022/07/26 04:09:29;;;;;;;16.35;4.15;;;;;;;16.92;82.13;101339.38;5056246;28;20029;-86
2022/07/26 04:11:54;;;;;;;24.33;5.43;;;;;;;16.98;82.49;101344.47;5066108;28;20067;-86
2022/07/26 04:14:20;;;;;;;16.92;4.68;;;;;;;16.99;82.71;101338.19;5071221;28;20044;-86
2022/07/26 04:16:46;;;;;;;17.10;4.25;;;;;;;16.92;83.01;101329.53;5039554;28;20043;-87
2022/07/26 04:19:11;;;;;;;14.80;4.65;;;;;;;16.98;83.27;101339.13;5039683;28;20127;-87
2022/07/26 04:21:37;;;;;;;18.55;4.75;;;;;;;16.99;83.26;101343.56;5030569;28;20508;-86
2022/07/26 04:24:03;;;;;;;22.23;5.28;;;;;;;17.01;83.03;101344.34;5037211;28;20702;-86
2022/07/26 04:26:29;;;;;;;20.60;5.10;;;;;;;17.04;83.24;101341.56;5039376;28;20071;-87
2022/07/26 04:28:55;;;;;;;20.83;4.78;;;;;;;17.06;82.72;101349.50;5049172;28;20040;-87
2022/07/26 04:31:21;;;;;;;16.30;4.53;;;;;;;17.08;82.62;101348.50;5051986;28;20497;-87
2022/07/26 04:33:47;;;;;;;17.63;4.80;;;;;;;17.05;82.67;101343.28;5039131;28;20094;-87
2022/07/26 04:36:13;;;;;;;24.92;5.38;;;;;;;17.08;83.04;101358.34;5055613;28;20396;-86
2022/07/26 04:38:38;;;;;;;20.00;4.55;;;;;;;17.05;82.28;101362.00;5050373;28;20025;-87
2022/07/26 04:41:04;;;;;;;20.67;5.47;;;;;;;17.02;83.51;101361.28;5038702;28;20033;-86
2022/07/26 04:43:30;;;;;;;18.02;5.47;;;;;;;17.04;82.90;101365.63;5042083;28;20035;-86
2022/07/26 04:45:56;;;;;;;19.55;4.40;;;;;;;17.02;82.79;101366.63;5039404;28;20121;-86
2022/07/26 04:48:22;;;;;;;17.13;4.38;;;;;;;17.00;82.88;101369.34;5039057;28;20055;-86
2022/07/26 04:50:48;;;;;;;13.55;4.57;;;;;;;16.92;83.33;101353.63;5043106;28;20459;-86
2022/07/26 04:53:14;;;;;;;20.58;5.50;;;;;;;16.92;83.33;101352.75;5058606;28;20040;-86
2022/07/26 04:55:40;;;;;;;20.55;5.15;;;;;;;16.90;83.47;101357.28;5052299;28;20388;-86
2022/07/26 04:58:06;;;;;;;19.65;4.85;;;;;;;16.97;83.30;101356.97;5047121;28;20399;-87
2022/07/26 05:00:32;;;;;;;18.30;4.40;;;;;;;16.98;82.37;101369.41;5037456;28;20112;-87
2022/07/26 05:03:00;;;;;;;20.15;4.60;;;;;;;16.97;82.76;101365.00;5034773;28;20523;-86
2022/07/26 05:05:31;;;;;;;20.67;5.00;;;;;;;16.98;82.90;101364.06;5028850;28;20041;-86
2022/07/26 05:08:00;;;;;;;15.85;4.50;;;;;;;17.09;82.98;101373.47;5035535;28;20039;-86
2022/07/26 05:10:35;;;;;;;22.20;5.35;;;;;;;17.10;83.42;101369.88;5068211;28;20392;-86
2022/07/26 05:13:05;;;;;;;19.45;4.75;;;;;;;17.15;83.35;101370.53;5047359;28;20052;-86
2022/07/26 05:15:31;;;;;;;19.17;5.53;;;;;;;17.25;82.73;101381.75;5048093;28;20029;-86
2022/07/26 05:18:01;;;;;;;15.43;4.68;;;;;;;17.29;82.43;101380.69;5053550;28;20043;-87
2022/07/26 05:20:27;;;;;;;22.77;5.72;;;;;;;17.32;83.10;101383.25;5052840;28;20037;-86
2022/07/26 05:22:53;;;;;;;23.05;4.78;;;;;;;17.43;82.37;101386.31;5054115;28;20033;-87
2022/07/26 05:25:18;;;;;;;19.10;4.97;;;;;;;17.51;82.04;101394.94;5035395;28;20051;-86
2022/07/26 05:27:44;;;;;;;17.48;4.32;;;;;;;17.53;81.88;101389.50;5020830;28;20035;-87
2022/07/26 05:30:10;;;;;;;19.15;5.00;;;;;;;17.62;82.27;101391.78;5027175;28;20487;-87
2022/07/26 05:32:35;;;;;;;14.70;4.75;;;;;;;17.66;81.83;101389.88;5038551;28;20045;-87
2022/07/26 05:35:01;;;;;;;18.02;4.95;;;;;;;17.74;81.41;101401.97;5038276;28;20071;-86
2022/07/26 05:37:27;;;;;;;14.63;4.80;;;;;;;17.71;81.30;101388.72;5028830;28;20057;-86
2022/07/26 05:39:52;;;;;;;17.35;4.82;;;;;;;17.82;81.40;101399.00;5062574;28;20468;-86
2022/07/26 05:42:18;;;;;;;20.15;5.25;;;;;;;17.86;80.22;101395.25;5050490;28;20127;-87
2022/07/26 05:44:43;;;;;;;14.80;4.45;;;;;;;17.91;79.71;101403.97;5057777;28;20032;-87
2022/07/26 05:47:09;;;;;;;22.92;5.68;;;;;;;17.88;80.19;101401.44;5030470;28;20033;-87
2022/07/26 05:49:35;;;;;;;16.92;4.95;;;;;;;17.92;80.74;101397.66;5063798;28;20534;-86
2022/07/26 05:52:01;;;;;;;13.25;4.65;;;;;;;17.96;80.08;101412.66;5044301;28;20025;-86
2022/07/26 05:54:26;;;;;;;15.32;4.63;;;;;;;17.98;79.89;101402.75;5013543;28;20065;-87
2022/07/26 05:56:52;;;;;;;14.68;4.53;;;;;;;18.03;79.67;101402.56;5038483;28;20060;-86
2022/07/26 05:59:17;;;;;;;17.55;4.32;;;;;;;18.07;79.38;101417.56;5047793;28;20024;-86
2022/07/26 06:01:43;;;;;;;14.73;4.68;;;;;;;18.03;78.90;101408.78;5027308;28;20032;-86
2022/07/26 06:04:09;;;;;;;15.30;4.60;;;;;;;18.08;78.97;101413.09;5035722;28;20029;-86
2022/07/26 06:06:35;;;;;;;23.20;4.05;;;;;;;18.18;79.47;101417.97;5043392;28;20039;-87
2022/07/26 06:09:00;;;;;;;15.48;5.00;;;;;;;18.25;79.57;101415.88;5020601;28;20522;-86
2022/07/26 06:11:26;;;;;;;16.27;4.85;;;;;;;18.39;78.80;101423.28;5034553;28;20082;-86
2022/07/26 06:13:51;;;;;;;17.20;4.28;;;;;;;18.46;79.43;101414.91;5046342;28;20055;-86
2022/07/26 06:16:17;;;;;;;16.95;4.90;;;;;;;18.56;77.72;101430.56;5041042;28;20043;-86
2022/07/26 06:18:43;;;;;;;17.17;4.38;;;;;;;18.59;77.20;101411.66;5057939;28;20048;-89
2022/07/26 06:21:08;;;;;;;13.43;4.57;;;;;;;18.68;77.08;101420.13;5030415;28;20029;-89
2022/07/26 06:23:34;;;;;;;17.85;4.53;;;;;;;18.69;76.42;101424.59;5044461;28;20025;-91
2022/07/26 06:25:59;;;;;;;13.80;4.18;;;;;;;18.76;76.39;101418.94;5050974;28;20044;-89
2022/07/26 06:28:25;;;;;;;14.25;4.25;;;;;;;18.81;75.47;101430.34;5035537;28;20028;-89
2022/07/26 06:30:51;;;;;;;14.43;4.45;;;;;;;18.66;75.59;101427.38;5027311;28;20036;-89
2022/07/26 06:33:16;;;;;;;8.57;3.90;;;;;;;18.62;76.10;101417.75;5022600;28;20029;-88
2022/07/26 06:35:42;;;;;;;16.45;3.75;;;;;;;18.67;75.63;101433.66;5029789;28;20048;-89
2022/07/26 06:38:08;;;;;;;14.75;4.88;;;;;;;18.74;75.75;101428.84;5021657;28;20033;-88
2022/07/26 06:40:34;;;;;;;12.68;4.32;;;;;;;18.81;74.13;101427.66;5040903;28;20494;-89
2022/07/26 06:43:01;;;;;;;14.68;4.40;;;;;;;19.02;73.76;101440.06;5039071;28;20025;-88
2022/07/26 06:45:27;;;;;;;14.93;3.72;;;;;;;18.97;74.04;101442.09;5051274;28;20040;-88
2022/07/26 06:47:59;;;;;;;14.10;3.90;;;;;;;18.83;72.79;101445.41;5024979;28;20044;-91
2022/07/26 06:50:25;;;;;;;12.00;3.60;;;;;;;18.75;73.53;101452.94;5057393;28;20557;-88
2022/07/26 06:52:52;;;;;;;15.18;3.53;;;;;;;18.70;72.90;101447.78;5058248;28;20028;-91
2022/07/26 06:55:20;;;;;;;10.00;2.75;;;;;;;18.64;72.15;101444.50;5034430;28;20036;-89
2022/07/26 06:57:46;;;;;;;12.70;3.20;;;;;;;18.72;71.90;101468.28;5050502;28;20036;-89
2022/07/26 07:00:12;;;;;;;11.43;3.10;;;;;;;18.70;72.59;101449.59;5040696;28;20115;-89
2022/07/26 07:02:37;;;;;;;10.45;3.20;;;;;;;18.87;72.65;101456.91;5051613;28;20027;-89
2022/07/26 07:05:04;;;;;;;13.38;3.08;;;;;;;19.01;72.09;101451.72;5060962;28;20036;-90
2022/07/26 07:07:29;;;;;;;13.73;3.22;;;;;;;19.22;70.80;101451.66;5058644;28;20052;-89
2022/07/26 07:09:55;;;;;;;15.05;3.45;;;;;;;19.42;69.34;101467.66;5020823;28;20491;-90
2022/07/26 07:12:20;;;;;;;11.13;3.20;;;;;;;19.35;68.38;101460.84;5037023;28;20100;-89
2022/07/26 07:14:46;;;;;;;11.73;3.15;;;;;;;19.36;68.76;101461.72;5039950;28;20052;-90
2022/07/26 07:17:11;;;;;;;11.50;3.30;;;;;;;19.46;69.15;101468.38;5039980;28;20091;-90
2022/07/26 07:19:37;;;;;;;8.40;2.80;;;;;;;19.43;68.80;101463.16;5036810;28;20120;-89
2022/07/26 07:22:04;;;;;;;12.45;2.88;;;;;;;19.52;69.10;101471.63;5055119;28;20122;-88
2022/07/26 07:24:30;;;;;;;13.52;3.20;;;;;;;19.49;68.63;101465.56;5036547;28;20028;-89
2022/07/26 07:26:58;;;;;;;10.30;2.85;;;;;;;19.47;67.27;101468.31;5022734;28;20040;-89
2022/07/26 07:29:24;;;;;;;9.52;2.88;;;;;;;19.37;67.64;101471.53;5056771;28;20075;-88
2022/07/26 07:31:50;;;;;;;12.30;2.45;;;;;;;19.24;68.05;101458.69;5041094;28;20033;-88
2022/07/26 07:34:21;;;;;;;10.38;2.70;;;;;;;19.26;68.22;101477.41;5041150;28;20087;-91
2022/07/26 07:36:51;;;;;;;13.75;3.08;;;;;;;19.06;69.08;101473.84;5040421;28;20468;-89
2022/07/26 07:39:17;;;;;;;11.93;3.55;;;;;;;18.94;72.88;101479.81;5045058;28;20036;-87
2022/07/26 07:41:47;;;;;;;11.25;3.05;;;;;;;18.80;74.37;101491.19;5035277;28;20426;-86
2022/07/26 07:44:12;;;;;;;10.27;3.40;;;;;;;18.70;75.29;101496.06;5045250;28;20055;-86
2022/07/26 07:46:38;;;;;;;11.82;3.53;;;;;;;18.63;75.88;101499.09;5073885;28;20040;-87
2022/07/26 07:49:04;;;;;;;11.52;3.30;;;;;;;18.61;77.00;101498.28;5039293;28;20044;-87
2022/07/26 07:51:31;;;;;;;9.40;2.75;;;;;;;18.62;78.82;101510.75;5056499;28;20040;-88
2022/07/26 07:53:56;;;;;;;9.23;1.67;;;;;;;18.61;74.71;101512.56;4993286;28;20020;-87
2022/07/26 07:56:22;;;;;;;3.95;1.17;;;;;;;18.54;76.38;101510.22;5036268;28;20082;-88
2022/07/26 07:58:47;;;;;;;1.50;0.82;;;;;;;18.56;75.81;101505.69;5023660;28;20507;-88
2022/07/26 08:01:13;;;;;;;3.33;0.73;;;;;;;18.57;75.09;101510.97;5024467;28;20044;-89
2022/07/26 08:03:38;;;;;;;0.75;0.50;;;;;;;18.64;76.92;101512.47;5020865;28;20032;-89
2022/07/26 08:06:07;;;;;;;1.58;0.80;;;;;;;18.67;76.42;101515.00;5048851;28;20043;-88
2022/07/26 08:08:33;;;;;;;2.88;0.40;;;;;;;18.65;75.21;101514.19;5042673;28;20067;-89
2022/07/26 08:10:59;;;;;;;1.17;0.57;;;;;;;18.63;75.78;101524.09;5033809;28;20029;-89
2022/07/26 08:13:24;;;;;;;2.22;0.80;;;;;;;18.64;74.95;101533.03;5011425;28;20040;-89
2022/07/26 08:15:51;;;;;;;0.95;0.63;;;;;;;18.62;75.57;101533.09;5036334;28;20384;-90
2022/07/26 08:18:17;;;;;;;0.70;0.45;;;;;;;18.70;77.21;101541.69;5062531;28;20060;-89
2022/07/26 08:20:43;;;;;;;1.80;0.95;;;;;;;18.69;76.57;101533.69;5053861;28;20029;-90
2022/07/26 08:23:08;;;;;;;2.75;0.77;;;;;;;18.64;76.08;101538.38;5022584;28;20032;-90
2022/07/26 08:25:34;;;;;;;2.88;1.15;;;;;;;18.63;76.23;101533.97;5039087;28;20157;-89
2022/07/26 08:27:59;;;;;;;1.98;0.93;;;;;;;18.61;76.41;101525.97;5049642;28;20029;-87
2022/07/26 08:30:25;;;;;;;2.03;0.90;;;;;;;18.79;76.66;101542.22;5029544;28;20040;-87
2022/07/26 08:32:51;;;;;;;2.28;0.73;;;;;;;18.87;75.36;101532.03;5045423;28;20040;-85
2022/07/26 08:35:16;;;;;;;4.32;0.82;;;;;;;18.97;75.33;101544.09;5040436;28;20025;-87
2022/07/26 08:37:42;;;;;;;1.85;0.77;;;;;;;19.05;75.25;101541.06;5046643;28;20484;-86
2022/07/26 08:40:07;;;;;;;4.13;1.48;;;;;;;19.16;74.49;101556.66;5038095;28;20039;-85
2022/07/26 08:42:33;;;;;;;6.65;1.15;;;;;;;19.07;73.62;101556.16;5044567;28;20037;-86
2022/07/26 08:44:59;;;;;;;4.22;1.15;;;;;;;19.02;72.57;101558.16;5072552;28;20025;-86
2022/07/26 08:47:25;;;;;;;2.17;1.05;;;;;;;19.05;74.32;101559.84;5047335;28;20037;-86
2022/07/26 08:49:50;;;;;;;2.75;1.13;;;;;;;19.19;73.42;101570.81;5045217;28;20040;-86
2022/07/26 08:52:16;;;;;;;4.40;1.42;;;;;;;19.20;71.58;101567.19;5038494;28;20036;-85
2022/07/26 08:54:48;;;;;;;7.95;1.33;;;;;;;19.28;71.52;101566.81;5038196;28;20060;-82
2022/07/26 08:57:14;;;;;;;8.68;1.50;;;;;;;19.41;71.34;101568.00;5054572;28;20107;-82
2022/07/26 08:59:40;;;;;;;4.70;1.35;;;;;;;19.54;70.48;101571.84;5037194;28;20598;-82
2022/07/26 09:02:08;;;;;;;5.60;1.70;;;;;;;19.64;71.52;101572.28;5037750;28;20131;-81
2022/07/26 09:04:36;;;;;;;6.80;1.65;;;;;;;19.70;70.35;101577.38;5021332;28;20036;-81
2022/07/26 09:07:07;;;;;;;3.20;1.20;;;;;;;19.95;69.79;101574.38;5037634;28;20020;-81
2022/07/26 09:09:36;;;;;;;9.38;1.70;;;;;;;20.26;68.31;101580.03;5053945;28;20472;-82
2022/07/26 09:12:19;;;;;;;11.13;2.05;;;;;;;20.40;67.74;101578.38;5037434;28;20042;-81
2022/07/26 09:14:46;;;;;;;9.15;1.73;;;;;;;20.44;67.50;101583.59;5046130;28;20484;-88
2022/07/26 09:17:12;;;;;;;8.82;1.65;;;;;;;20.44;67.37;101587.16;5048935;28;20032;-89
2022/07/26 09:19:38;;;;;;;7.28;1.55;;;;;;;20.48;69.11;101585.19;5085164;28;20743;-88
2022/07/26 09:22:08;;;;;;;5.57;1.48;;;;;;;20.48;68.93;101590.56;5034702;28;20072;-89
2022/07/26 09:24:46;;;;;;;7.00;2.40;;;;;;;20.46;67.04;101597.84;5036543;28;20029;-88
2022/07/26 09:27:14;;;;;;;8.00;1.60;;;;;;;20.29;67.35;101593.31;5051596;28;20033;-89
2022/07/26 09:29:48;;;;;;;9.63;2.13;;;;;;;20.25;67.44;101603.38;5056825;28;20035;-88
2022/07/26 09:32:22;;;;;;;37.95;2.40;;;;;;;20.16;66.50;101609.19;5052368;28;20029;-90
2022/07/26 09:34:51;;;;;;;3.63;1.05;;;;;;;20.31;66.74;101603.03;5037424;28;20043;-89
2022/07/26 09:37:17;;;;;;;3.40;0.93;;;;;;;20.60;66.61;101600.72;5054163;28;20479;-88
2022/07/26 09:39:59;;;;;;;2.38;0.70;;;;;;;21.14;63.75;101598.75;5052330;28;20602;-88
2022/07/26 09:42:26;;;;;;;27.05;1.85;;;;;;;21.47;62.91;101611.34;5084755;28;20032;-88
2022/07/26 09:44:54;;;;;;;2.67;0.77;;;;;;;21.49;59.82;101604.06;5061730;28;20093;-89
2022/07/26 09:47:20;;;;;;;3.28;1.10;;;;;;;21.69;60.53;101606.50;5071696;28;20078;-88
2022/07/26 09:49:46;;;;;;;3.70;1.10;;;;;;;22.05;62.60;101609.88;5012133;28;20047;-89
2022/07/26 09:52:17;;;;;;;3.38;0.95;;;;;;;22.29;60.98;101608.47;5053351;28;20024;-88
2022/07/26 09:54:45;;;;;;;5.03;1.05;;;;;;;22.52;59.00;101608.94;5028440;28;20043;-88
2022/07/26 09:57:17;;;;;;;3.65;1.00;;;;;;;22.69;58.10;101613.31;5076040;28;20158;-87
2022/07/26 09:59:44;;;;;;;1.40;0.50;;;;;;;22.51;55.22;101612.59;5044525;28;20033;-87
2022/07/26 10:02:17;;;;;;;5.18;0.75;;;;;;;22.43;56.87;101617.59;5042269;28;20703;-87
2022/07/26 10:04:44;;;;;;;1.67;0.80;;;;;;;22.11;54.35;101623.88;5053357;28;20036;-88
2022/07/26 10:07:14;;;;;;;1.27;0.43;;;;;;;21.74;54.30;101614.34;5049802;28;20020;-88
2022/07/26 10:09:53;;;;;;;3.22;0.98;;;;;;;21.62;56.08;101626.66;5079145;28;20082;-88
2022/07/26 10:12:22;;;;;;;6.03;0.82;;;;;;;21.63;57.76;101619.44;5067489;28;20047;-88
2022/07/26 10:14:50;;;;;;;2.47;0.65;;;;;;;21.61;56.86;101610.56;5038174;28;20041;-88
2022/07/26 10:17:28;;;;;;;2.55;0.88;;;;;;;21.87;57.66;101631.53;5041488;28;20044;-87
2022/07/26 10:20:02;;;;;;;1.90;0.95;;;;;;;21.98;58.19;101619.28;5038384;28;20064;-88
2022/07/26 10:22:30;;;;;;;8.82;1.05;;;;;;;22.20;57.26;101635.97;5051738;28;20510;-89
2022/07/26 10:25:16;;;;;;;7.68;0.88;;;;;;;22.44;58.17;101622.03;5055526;28;20029;-88
2022/07/26 10:27:45;;;;;;;5.47;1.38;;;;;;;22.62;55.60;101628.16;5041294;28;20111;-88
2022/07/26 10:30:21;;;;;;;3.50;1.10;;;;;;;22.76;55.14;101630.88;5041004;28;20024;-87
2022/07/26 10:32:52;;;;;;;2.95;0.90;;;;;;;22.85;54.89;101622.22;5071048;28;20067;-87
2022/07/26 10:35:33;;;;;;;4.88;1.17;;;;;;;22.93;55.77;101625.31;5041199;28;20121;-87
2022/07/26 10:38:01;;;;;;;4.13;1.10;;;;;;;22.97;54.43;101623.28;5042609;28;20032;-87
2022/07/26 10:40:31;;;;;;;5.90;1.20;;;;;;;22.62;53.54;101612.81;5050566;28;20443;-87
2022/07/26 10:43:11;;;;;;;4.00;1.40;;;;;;;22.38;54.17;101634.06;5077427;28;20365;-88
2022/07/26 10:45:37;;;;;;;2.58;1.13;;;;;;;22.36;53.46;101635.09;5037961;28;20025;-88
2022/07/26 10:48:12;;;;;;;3.75;0.80;;;;;;;22.48;55.41;101623.59;5036213;28;20013;-88
2022/07/26 10:50:39;;;;;;;4.50;1.27;;;;;;;22.53;54.31;101632.28;5048926;28;20035;-89
2022/07/26 10:53:08;;;;;;;4.90;1.10;;;;;;;22.42;55.53;101632.03;5040916;28;20040;-87
2022/07/26 10:55:50;;;;;;;4.30;1.40;;;;;;;22.33;55.15;101638.84;5028054;28;20444;-87
2022/07/26 10:58:16;;;;;;;6.70;1.25;;;;;;;21.95;54.55;101644.59;5059542;28;20043;-88
2022/07/26 11:00:59;;;;;;;7.05;1.35;;;;;;;21.84;57.11;101655.13;5042077;28;20047;-88
2022/07/26 11:03:34;;;;;;;4.85;1.50;;;;;;;21.41;58.86;101653.00;5042337;28;20067;-88
2022/07/26 11:06:09;;;;;;;8.90;1.50;;;;;;;21.05;63.50;101672.81;5061276;28;20484;-89
2022/07/26 11:08:35;;;;;;;9.38;1.30;;;;;;;20.61;67.02;101667.91;5059242;28;20357;-87
2022/07/26 11:11:03;;;;;;;5.95;1.40;;;;;;;20.28;68.18;101672.28;5048970;28;20023;-88
2022/07/26 11:13:32;;;;;;;4.05;1.75;;;;;;;20.04;70.59;101679.72;5065636;28;20111;-88
2022/07/26 11:16:10;;;;;;;10.02;2.22;;;;;;;19.85;69.30;101677.88;5080891;28;20078;-88
2022/07/26 11:18:37;;;;;;;5.55;1.60;;;;;;;19.69;70.89;101685.81;5053598;28;20040;-89